Time;durP1;ratioP1;P1;durP2;ratioP2;P2;SDS_P1;SDS_P2;PMS_P1;PMS_P2;Temp;Humidity;BMP_temperature;BMP_pressure;BME280_temperature;BME280_humidity;BME280_pressure;Samples;Min_cycle;Max_cycle;Signal;HPM_P1;HPM_P2
2023/10/21 00:01:56;;;;;;;3.00;2.07;;;3.90;99.90;3.00;98741;;;;565792;249;24122;-76
2023/10/21 00:04:23;;;;;;;17.53;7.53;;;3.90;99.90;3.00;98725;;;;566364;249;24105;-75
2023/10/21 00:06:52;;;;;;;6.47;2.60;;;3.90;99.90;3.00;98727;;;;568362;249;24129;-75
2023/10/21 00:09:20;;;;;;;4.80;2.90;;;3.90;99.90;3.00;98721;;;;564014;247;24164;-75
2023/10/21 00:11:48;;;;;;;6.67;2.33;;;3.90;99.90;3.00;98732;;;;564844;249;24161;-76
2023/10/21 00:14:17;;;;;;;3.77;2.50;;;3.90;99.90;3.00;98721;;;;564824;249;24105;-75
2023/10/21 00:16:47;;;;;;;4.27;2.53;;;3.90;99.90;3.00;98728;;;;567281;249;24102;-77
2023/10/21 00:19:15;;;;;;;4.63;2.33;;;3.90;99.90;3.00;98713;;;;563114;249;24156;-76
2023/10/21 00:21:39;;;;;;;2.23;2.13;;;3.90;99.90;3.10;98705;;;;567055;248;24143;-80
2023/10/21 00:24:07;;;;;;;4.20;2.50;;;3.90;99.90;3.10;98705;;;;572010;245;24118;-84
2023/10/21 00:26:49;;;;;;;2.50;2.27;;;3.90;99.90;3.00;98703;;;;577169;247;24137;-83
2023/10/21 00:29:16;;;;;;;2.07;1.93;;;3.90;99.90;3.10;98692;;;;565744;249;24171;-84
2023/10/21 00:31:46;;;;;;;2.93;1.60;;;3.90;99.90;3.00;98707;;;;565457;249;24106;-76
2023/10/21 00:34:14;;;;;;;1.77;1.67;;;3.90;99.90;3.00;98710;;;;566399;248;24081;-74
2023/10/21 00:36:42;;;;;;;3.07;2.47;;;3.90;99.90;3.00;98714;;;;566710;248;24188;-75
2023/10/21 00:39:13;;;;;;;2.33;2.20;;;3.90;99.90;3.00;98706;;;;566357;249;24104;-75
2023/10/21 00:41:41;;;;;;;2.70;2.30;;;3.90;99.90;3.00;98703;;;;566370;249;24138;-75
2023/10/21 00:44:10;;;;;;;2.43;2.13;;;3.90;99.90;3.00;98694;;;;567802;249;24110;-76
2023/10/21 00:46:37;;;;;;;2.30;2.10;;;3.90;99.90;3.00;98708;;;;566228;249;24080;-74
2023/10/21 00:49:05;;;;;;;3.47;2.10;;;3.90;99.90;3.00;98707;;;;565737;249;24088;-76
2023/10/21 00:51:37;;;;;;;2.13;2.00;;;3.90;99.90;3.10;98713;;;;576072;247;24157;-74
2023/10/21 00:54:01;;;;;;;2.37;2.17;;;3.90;99.90;3.00;98697;;;;566911;249;25139;-74
2023/10/21 00:56:32;;;;;;;2.07;1.97;;;4.00;99.90;3.10;98693;;;;567339;249;24105;-75
2023/10/21 00:58:57;;;;;;;1.83;1.70;;;3.90;99.90;3.10;98690;;;;575758;249;24096;-78
2023/10/21 01:01:25;;;;;;;2.80;2.00;;;3.90;99.90;3.10;98689;;;;575960;247;24090;-78
2023/10/21 01:03:53;;;;;;;2.80;2.60;;;4.00;99.90;3.10;98672;;;;565971;249;24126;-78
2023/10/21 01:06:20;;;;;;;2.57;1.80;;;4.00;99.90;3.10;98690;;;;566140;249;24104;-80
2023/10/21 01:08:48;;;;;;;2.20;2.10;;;4.00;99.90;3.10;98704;;;;566165;249;24115;-81
2023/10/21 01:11:16;;;;;;;2.10;2.00;;;4.00;99.90;3.10;98702;;;;565594;249;24130;-78
2023/10/21 01:13:45;;;;;;;2.50;2.30;;;4.00;99.90;3.10;98702;;;;565853;249;24148;-75
2023/10/21 01:16:13;;;;;;;2.80;2.57;;;4.00;99.90;3.10;98704;;;;563457;249;24116;-80
2023/10/21 01:18:45;;;;;;;2.33;2.07;;;4.00;99.90;3.20;98700;;;;570637;249;24092;-85
2023/10/21 01:21:09;;;;;;;2.00;1.90;;;4.00;99.90;3.20;98693;;;;566116;249;24097;-76
2023/10/21 01:23:41;;;;;;;5.87;2.40;;;4.00;99.90;3.20;98694;;;;575866;247;24084;-74
2023/10/21 01:26:09;;;;;;;2.40;2.13;;;4.00;99.90;3.20;98699;;;;565702;249;24097;-76
2023/10/21 01:28:37;;;;;;;1.93;1.80;;;4.00;99.90;3.20;98699;;;;575755;248;24143;-80
2023/10/21 01:31:07;;;;;;;2.60;2.27;;;4.10;99.90;3.20;98685;;;;575830;247;24144;-80
2023/10/21 01:33:33;;;;;;;7.67;4.77;;;4.10;99.90;3.20;98699;;;;576901;248;24097;-86
2023/10/21 01:36:01;;;;;;;3.83;2.57;;;4.10;99.90;3.20;98694;;;;567201;248;24139;-85
2023/10/21 01:38:28;;;;;;;2.83;2.53;;;4.10;99.90;3.20;98695;;;;566952;248;24137;-84
2023/10/21 01:41:00;;;;;;;2.80;2.37;;;4.10;99.90;3.20;98687;;;;567168;248;24091;-84
2023/10/21 01:43:24;;;;;;;3.17;2.83;;;4.10;99.90;3.20;98687;;;;566033;248;24139;-80
2023/10/21 01:45:52;;;;;;;4.13;3.23;;;4.10;99.90;3.20;98685;;;;566979;248;24166;-77
2023/10/21 01:48:20;;;;;;;3.90;3.23;;;4.10;99.90;3.30;98683;;;;567006;248;24077;-78
2023/10/21 01:50:49;;;;;;;4.63;2.83;;;4.20;99.90;3.30;98678;;;;566029;249;24093;-77
2023/10/21 01:53:17;;;;;;;5.10;3.47;;;4.10;99.90;3.30;98674;;;;566109;249;24099;-80
2023/10/21 01:55:45;;;;;;;3.93;2.90;;;4.20;99.90;3.30;98673;;;;566199;249;24102;-75
2023/10/21 01:58:13;;;;;;;3.17;2.90;;;4.10;99.90;3.30;98674;;;;566034;248;24199;-82
2023/10/21 02:00:43;;;;;;;3.70;3.10;;;4.20;99.90;3.30;98658;;;;568123;249;24178;-76
2023/10/21 02:03:11;;;;;;;4.97;3.03;;;4.20;99.90;3.30;98671;;;;565779;249;24133;-75
2023/10/21 02:05:39;;;;;;;4.00;3.47;;;4.20;99.90;3.30;98663;;;;566310;249;24134;-75
2023/10/21 02:08:07;;;;;;;2.93;2.70;;;4.20;99.90;3.30;98657;;;;566094;249;24171;-83
2023/10/21 02:10:35;;;;;;;5.10;3.30;;;4.20;99.90;3.30;98661;;;;565981;249;24081;-76
2023/10/21 02:13:03;;;;;;;5.77;3.80;;;4.20;99.90;3.30;98634;;;;565839;249;24137;-83
2023/10/21 02:15:31;;;;;;;4.87;3.43;;;4.20;99.90;3.30;98644;;;;568378;249;24116;-82
2023/10/21 02:18:02;;;;;;;6.07;3.83;;;4.20;99.90;3.30;98645;;;;568304;249;24093;-84
2023/10/21 02:20:28;;;;;;;5.67;4.33;;;4.20;99.90;3.30;98640;;;;565178;249;24154;-75
2023/10/21 02:22:55;;;;;;;5.60;3.87;;;4.20;99.90;3.30;98646;;;;576447;248;24079;-75
2023/10/21 02:25:23;;;;;;;8.83;4.47;;;4.20;99.90;3.30;98642;;;;565911;248;24074;-75
2023/10/21 02:27:51;;;;;;;7.10;3.60;;;4.20;99.90;3.30;98651;;;;565666;249;24093;-74
2023/10/21 02:30:19;;;;;;;5.17;3.53;;;4.20;99.90;3.40;98638;;;;565874;248;24089;-78
2023/10/21 02:32:51;;;;;;;5.17;3.73;;;4.20;99.90;3.40;98637;;;;565795;249;24081;-78
2023/10/21 02:35:16;;;;;;;7.20;4.07;;;4.20;99.90;3.40;98633;;;;575291;249;24085;-82
2023/10/21 02:37:45;;;;;;;5.60;3.50;;;4.30;99.90;3.40;98633;;;;566540;249;24193;-84
2023/10/21 02:40:18;;;;;;;6.63;3.83;;;4.20;99.90;3.40;98627;;;;576329;246;24117;-83
2023/10/21 02:42:46;;;;;;;4.37;3.83;;;4.30;99.90;3.40;98618;;;;568424;246;24103;-80
2023/10/21 02:45:14;;;;;;;4.97;3.60;;;4.30;99.90;3.40;98623;;;;567359;248;24095;-77
2023/10/21 02:47:42;;;;;;;5.40;3.87;;;4.30;99.90;3.40;98624;;;;567092;248;24101;-79
2023/10/21 02:50:10;;;;;;;4.90;4.40;;;4.30;99.90;3.40;98619;;;;567229;248;24083;-77
2023/10/21 02:52:37;;;;;;;3.37;3.07;;;4.30;99.90;3.40;98626;;;;576561;247;24103;-79
2023/10/21 02:55:06;;;;;;;6.33;4.57;;;4.30;99.90;3.50;98645;;;;566204;248;24135;-81
2023/10/21 02:57:34;;;;;;;5.07;4.27;;;4.30;99.90;3.50;98654;;;;568606;246;24115;-75
2023/10/21 03:00:01;;;;;;;6.60;4.47;;;4.30;99.90;3.50;98642;;;;566222;248;24085;-81
2023/10/21 03:02:29;;;;;;;6.33;4.73;;;4.40;99.90;3.50;98627;;;;576152;246;24117;-80
2023/10/21 03:04:58;;;;;;;5.90;4.00;;;4.40;99.90;3.50;98643;;;;566006;248;24074;-78
2023/10/21 03:07:25;;;;;;;5.50;3.63;;;4.40;99.90;3.50;98647;;;;566383;249;25166;-76
2023/10/21 03:09:54;;;;;;;8.37;4.27;;;4.40;99.90;3.50;98659;;;;565903;249;24095;-80
2023/10/21 03:12:22;;;;;;;6.43;4.13;;;4.40;99.90;3.60;98656;;;;566475;249;24098;-77
2023/10/21 03:14:50;;;;;;;8.87;4.33;;;4.40;99.90;3.60;98656;;;;566303;248;24099;-77
2023/10/21 03:17:19;;;;;;;13.87;4.20;;;4.40;99.90;3.60;98662;;;;566322;248;24191;-78
2023/10/21 03:19:46;;;;;;;3.03;2.42;;;4.50;99.90;3.60;98671;;;;561121;249;35294;-86
2023/10/21 03:22:14;;;;;;;2.87;1.23;;;4.50;99.90;3.60;98677;;;;566075;249;24093;-75
2023/10/21 03:24:42;;;;;;;1.73;1.63;;;4.50;99.90;3.60;98681;;;;565783;249;24097;-74
2023/10/21 03:27:15;;;;;;;4.23;3.43;;;4.30;99.90;3.60;98686;;;;565636;249;24109;-75
2023/10/21 03:29:43;;;;;;;5.23;3.93;;;4.50;99.90;3.60;98694;;;;575906;248;24128;-80
2023/10/21 03:32:11;;;;;;;4.83;3.67;;;4.50;99.90;3.70;98697;;;;565653;249;24074;-75
2023/10/21 03:34:40;;;;;;;6.43;3.87;;;4.50;99.90;3.70;98692;;;;566066;249;24119;-76
2023/10/21 03:37:09;;;;;;;4.87;3.83;;;4.50;99.90;3.70;98690;;;;568206;249;24137;-77
2023/10/21 03:39:37;;;;;;;6.50;4.53;;;4.50;99.90;3.70;98688;;;;576267;247;24115;-75
2023/10/21 03:42:05;;;;;;;7.10;4.30;;;4.60;99.90;3.70;98675;;;;566089;249;24097;-76
2023/10/21 03:44:33;;;;;;;5.00;3.87;;;4.50;99.90;3.70;98685;;;;567056;249;24085;-75
2023/10/21 03:47:01;;;;;;;5.93;4.17;;;4.60;99.90;3.70;98684;;;;566181;249;24112;-77
2023/10/21 03:49:30;;;;;;;5.00;4.50;;;4.60;99.90;3.70;98685;;;;566163;249;24084;-75
2023/10/21 03:51:57;;;;;;;6.87;4.83;;;4.60;99.90;3.70;98677;;;;565943;249;24111;-76
2023/10/21 03:54:25;;;;;;;5.60;4.17;;;4.60;99.90;3.80;98662;;;;566026;248;24102;-76
2023/10/21 03:56:53;;;;;;;6.73;4.93;;;4.60;99.90;3.80;98641;;;;566963;248;24138;-76
2023/10/21 03:59:21;;;;;;;6.70;4.80;;;4.60;99.90;3.80;98626;;;;567112;248;24131;-75
2023/10/21 04:01:49;;;;;;;7.27;4.90;;;4.60;99.90;3.80;98613;;;;566384;248;24094;-75
2023/10/21 04:04:17;;;;;;;7.60;4.30;;;4.60;99.90;3.80;98612;;;;566295;248;24125;-76
2023/10/21 04:06:45;;;;;;;6.00;4.10;;;4.60;99.90;3.80;98615;;;;571603;248;24182;-81
2023/10/21 04:09:13;;;;;;;6.77;4.20;;;4.60;99.90;3.80;98614;;;;566335;248;24118;-82
2023/10/21 04:11:42;;;;;;;5.70;4.30;;;4.60;99.90;3.80;98623;;;;566230;248;24079;-75
2023/10/21 04:14:10;;;;;;;8.77;4.20;;;4.60;99.90;3.80;98623;;;;565923;249;24093;-75
2023/10/21 04:16:42;;;;;;;7.23;4.70;;;4.60;99.90;3.80;98619;;;;565966;249;24121;-76
2023/10/21 04:19:04;;;;;;;9.67;4.63;;;4.60;99.90;3.80;98617;;;;568146;245;24100;-75
2023/10/21 04:21:36;;;;;;;7.00;4.97;;;4.70;99.90;3.80;98615;;;;566265;249;24161;-76
2023/10/21 04:24:07;;;;;;;7.57;4.77;;;4.60;99.90;3.80;98624;;;;566354;248;24100;-74
2023/10/21 04:26:32;;;;;;;5.97;5.00;;;4.70;99.90;3.80;98611;;;;567191;249;24090;-77
2023/10/21 04:29:00;;;;;;;7.67;4.67;;;4.70;99.90;3.80;98623;;;;570763;249;24101;-75
2023/10/21 04:31:27;;;;;;;6.40;5.03;;;4.70;99.90;3.80;98617;;;;565645;249;24137;-75
2023/10/21 04:33:56;;;;;;;4.40;4.00;;;4.70;99.90;3.80;98622;;;;566026;249;24122;-77
2023/10/21 04:36:24;;;;;;;6.67;4.70;;;4.70;99.90;3.80;98628;;;;567454;249;24089;-77
2023/10/21 04:38:52;;;;;;;11.70;4.83;;;5.20;99.90;3.90;98626;;;;571296;249;24089;-76
2023/10/21 04:41:20;;;;;;;11.10;5.77;;;4.70;99.90;3.90;98629;;;;566138;249;24084;-77
2023/10/21 04:43:48;;;;;;;8.23;4.40;;;4.70;99.90;3.90;98646;;;;565923;249;24115;-76
2023/10/21 04:46:16;;;;;;;16.13;6.03;;;4.70;99.90;3.90;98624;;;;565942;249;24105;-76
2023/10/21 04:48:44;;;;;;;12.07;5.43;;;4.70;99.90;3.90;98630;;;;566565;249;24081;-78
2023/10/21 04:51:11;;;;;;;9.73;5.20;;;4.80;99.90;3.90;98636;;;;566015;249;24140;-77
2023/10/21 04:53:39;;;;;;;7.30;5.23;;;4.80;99.90;3.90;98641;;;;565964;249;24085;-76
2023/10/21 04:56:07;;;;;;;7.03;4.40;;;4.80;99.90;4.00;98639;;;;565946;249;24129;-77
2023/10/21 04:58:35;;;;;;;8.50;4.97;;;4.80;99.90;4.00;98638;;;;565801;249;24122;-75
2023/10/21 05:01:03;;;;;;;12.40;5.57;;;4.80;99.90;4.00;98631;;;;565666;249;24119;-77
2023/10/21 05:03:31;;;;;;;26.13;5.93;;;4.80;99.90;4.00;98642;;;;567419;247;24106;-75
2023/10/21 05:05:59;;;;;;;7.77;4.43;;;4.80;99.90;4.00;98633;;;;566408;248;24095;-75
2023/10/21 05:08:28;;;;;;;6.10;4.20;;;4.80;99.90;4.00;98633;;;;567321;248;24221;-78
2023/10/21 05:10:55;;;;;;;9.07;4.87;;;4.80;99.90;4.00;98632;;;;566691;248;24127;-80
2023/10/21 05:13:24;;;;;;;7.53;5.53;;;4.90;99.90;4.00;98636;;;;566611;248;24099;-77
2023/10/21 05:15:52;;;;;;;10.77;6.37;;;4.80;99.90;4.00;98624;;;;566846;248;24096;-76
2023/10/21 05:18:20;;;;;;;10.23;7.10;;;4.90;99.90;4.00;98637;;;;566291;248;24095;-77
2023/10/21 05:20:48;;;;;;;13.70;8.33;;;4.90;99.90;4.00;98634;;;;568381;248;24123;-84
2023/10/21 05:23:16;;;;;;;16.30;8.03;;;4.90;99.90;4.10;98642;;;;566546;248;24081;-79
2023/10/21 05:25:47;;;;;;;16.37;7.23;;;4.90;99.90;4.10;98632;;;;565944;249;24089;-76
2023/10/21 05:28:12;;;;;;;13.53;5.90;;;4.90;99.90;4.10;98639;;;;576378;246;24127;-77
2023/10/21 05:30:41;;;;;;;13.23;5.43;;;4.90;99.90;4.10;98648;;;;566514;249;24098;-76
2023/10/21 05:33:07;;;;;;;13.20;4.83;;;5.00;99.90;4.10;98653;;;;566318;249;24171;-77
2023/10/21 05:35:39;;;;;;;10.17;4.67;;;5.00;99.90;4.20;98655;;;;566229;249;24100;-77
2023/10/21 05:38:07;;;;;;;10.73;4.63;;;5.00;99.90;4.20;98666;;;;565839;249;24108;-76
2023/10/21 05:40:31;;;;;;;7.40;4.87;;;5.00;99.90;4.20;98671;;;;575785;249;24187;-78
2023/10/21 05:42:59;;;;;;;10.90;4.13;;;5.00;99.90;4.20;98684;;;;565740;249;24146;-83
2023/10/21 05:45:27;;;;;;;7.03;4.50;;;5.00;99.90;4.20;98673;;;;565795;249;24095;-78
2023/10/21 05:47:55;;;;;;;7.43;4.00;;;5.10;99.90;4.20;98673;;;;565590;249;24088;-76
2023/10/21 05:50:24;;;;;;;8.93;4.77;;;5.10;99.90;4.20;98681;;;;565812;248;24100;-78
2023/10/21 05:52:51;;;;;;;8.20;4.53;;;5.10;99.90;4.20;98685;;;;565560;249;24097;-75
2023/10/21 05:55:19;;;;;;;13.70;4.90;;;5.10;99.90;4.30;98679;;;;567207;249;24166;-74
2023/10/21 05:57:47;;;;;;;8.20;5.03;;;5.10;99.90;4.30;98684;;;;567595;249;24109;-76
2023/10/21 06:00:19;;;;;;;11.30;6.27;;;5.10;99.90;4.30;98678;;;;566229;249;24091;-78
2023/10/21 06:02:43;;;;;;;16.53;7.80;;;5.10;99.90;4.30;98676;;;;565843;249;24104;-76
2023/10/21 06:05:15;;;;;;;12.90;6.63;;;5.10;99.90;4.30;98674;;;;566025;249;24139;-75
2023/10/21 06:07:40;;;;;;;15.27;5.87;;;5.10;99.90;4.30;98673;;;;570690;249;24145;-78
2023/10/21 06:10:08;;;;;;;6.57;4.07;;;5.10;99.90;4.30;98670;;;;565727;249;24105;-78
2023/10/21 06:12:39;;;;;;;8.53;5.10;;;5.10;99.90;4.30;98664;;;;565443;246;24110;-75
2023/10/21 06:15:04;;;;;;;9.07;4.70;;;5.10;99.90;4.30;98665;;;;562957;249;24101;-77
2023/10/21 06:17:32;;;;;;;12.30;5.63;;;5.10;99.90;4.30;98669;;;;567557;247;24136;-77
2023/10/21 06:20:00;;;;;;;10.67;5.23;;;5.10;99.90;4.30;98666;;;;567385;248;24161;-76
2023/10/21 06:22:28;;;;;;;9.60;4.97;;;5.10;99.90;4.30;98659;;;;566841;248;24125;-75
2023/10/21 06:24:56;;;;;;;9.43;5.63;;;5.10;99.90;4.30;98654;;;;567164;248;24095;-76
2023/10/21 06:27:24;;;;;;;14.13;6.00;;;5.10;99.90;4.20;98661;;;;566337;248;24100;-75
2023/10/21 06:29:52;;;;;;;16.23;5.47;;;5.10;99.90;4.30;98670;;;;566563;248;24182;-78
2023/10/21 06:32:20;;;;;;;22.43;6.40;;;5.10;99.90;4.30;98664;;;;565640;249;24144;-76
2023/10/21 06:34:47;;;;;;;0.00;0.00;;;5.10;99.90;4.30;98668;;;;565590;249;24082;-77
2023/10/21 06:37:16;;;;;;;8.87;5.53;;;5.20;99.90;4.30;98659;;;;565326;249;24090;-76
2023/10/21 06:39:44;;;;;;;10.33;5.73;;;5.10;99.90;4.30;98665;;;;565415;249;24148;-75
2023/10/21 06:42:13;;;;;;;8.47;5.30;;;5.20;99.90;4.40;98672;;;;565983;248;24105;-77
2023/10/21 06:44:41;;;;;;;9.33;6.07;;;5.20;99.90;4.40;98673;;;;565952;248;24143;-75
2023/10/21 06:47:09;;;;;;;7.57;4.83;;;5.20;99.90;4.40;98682;;;;565837;249;24119;-75
2023/10/21 06:49:36;;;;;;;11.73;6.10;;;5.30;99.90;4.40;98681;;;;566043;249;24089;-76
2023/10/21 06:52:04;;;;;;;11.93;6.90;;;5.30;99.90;4.40;98686;;;;576171;246;24121;-75
2023/10/21 06:54:32;;;;;;;10.07;4.90;;;5.30;99.90;4.50;98692;;;;562276;249;35312;-75
2023/10/21 06:57:00;;;;;;;11.93;6.12;;;5.30;99.90;4.50;98695;;;;560796;249;35311;-75
2023/10/21 06:59:28;;;;;;;11.23;6.82;;;5.30;99.90;4.50;98691;;;;561029;249;46183;-75
2023/10/21 07:01:56;;;;;;;6.20;4.00;;;5.40;99.90;4.50;98696;;;;566086;249;24133;-75
2023/10/21 07:04:24;;;;;;;6.07;3.70;;;5.40;99.90;4.50;98690;;;;566039;249;24086;-77
2023/10/21 07:06:52;;;;;;;2.93;2.67;;;5.40;99.90;4.60;98695;;;;566071;249;24106;-78
2023/10/21 07:09:21;;;;;;;5.17;3.03;;;5.40;99.90;4.60;98685;;;;565810;249;24111;-77
2023/10/21 07:11:48;;;;;;;6.83;3.03;;;5.40;99.90;4.60;98689;;;;565972;249;24097;-77
2023/10/21 07:14:16;;;;;;;4.93;2.37;;;5.50;99.90;4.60;98696;;;;576302;246;24156;-84
2023/10/21 07:16:44;;;;;;;7.13;4.13;;;5.50;99.90;4.60;98696;;;;566132;249;24084;-86
2023/10/21 07:19:12;;;;;;;8.17;4.80;;;5.50;99.90;4.70;98698;;;;566029;249;24095;-77
2023/10/21 07:21:43;;;;;;;8.60;4.67;;;5.50;99.90;4.70;98700;;;;566154;249;24128;-76
2023/10/21 07:24:12;;;;;;;8.77;5.17;;;5.50;99.90;4.70;98696;;;;576247;245;24124;-76
2023/10/21 07:26:36;;;;;;;10.93;4.70;;;5.60;99.90;4.70;98691;;;;563196;249;24176;-80
2023/10/21 07:29:04;;;;;;;13.70;6.63;;;5.60;99.90;4.70;98703;;;;565396;247;24111;-77
2023/10/21 07:31:35;;;;;;;14.83;6.53;;;5.60;99.90;4.70;98726;;;;577870;247;24152;-77
2023/10/21 07:33:59;;;;;;;8.30;6.07;;;5.60;99.90;4.70;98741;;;;576624;247;24094;-77
2023/10/21 07:36:27;;;;;;;12.80;6.40;;;5.60;99.90;4.80;98745;;;;566649;248;24083;-77
2023/10/21 07:38:56;;;;;;;13.37;5.73;;;5.60;99.90;4.80;98756;;;;566373;248;24096;-80
2023/10/21 07:41:23;;;;;;;11.63;5.57;;;5.60;99.90;4.80;98765;;;;567217;248;24100;-82
2023/10/21 07:43:51;;;;;;;14.00;5.50;;;5.70;99.90;4.90;98761;;;;566570;248;24123;-76
2023/10/21 07:46:19;;;;;;;11.93;5.70;;;5.70;99.90;4.90;98772;;;;566557;248;24098;-78
2023/10/21 07:48:47;;;;;;;8.67;5.23;;;5.80;99.90;4.90;98772;;;;566152;247;24139;-75
2023/10/21 07:51:15;;;;;;;11.60;6.17;;;5.70;99.90;4.90;98761;;;;566212;249;25144;-75
2023/10/21 07:53:43;;;;;;;12.23;6.07;;;5.70;99.90;4.90;98778;;;;566334;249;24165;-78
2023/10/21 07:56:10;;;;;;;12.77;6.83;;;5.70;99.90;4.90;98768;;;;565300;249;24087;-78
2023/10/21 07:58:42;;;;;;;11.37;5.93;;;5.80;99.90;4.90;98772;;;;566307;249;24123;-77
2023/10/21 08:01:06;;;;;;;10.07;6.13;;;6.50;99.90;5.00;98776;;;;567607;247;24123;-76
2023/10/21 08:03:34;;;;;;;13.20;6.77;;;5.80;99.90;4.90;98774;;;;565999;249;24121;-76
2023/10/21 08:06:05;;;;;;;10.47;6.07;;;5.80;99.90;5.00;98780;;;;566429;249;24139;-77
2023/10/21 08:08:30;;;;;;;9.30;5.17;;;5.80;99.90;5.00;98780;;;;575795;249;24116;-75
2023/10/21 08:11:04;;;;;;;8.57;6.60;;;5.80;99.90;5.00;98780;;;;565901;249;24099;-76
2023/10/21 08:13:29;;;;;;;11.20;6.70;;;5.80;99.90;5.00;98780;;;;566168;249;24095;-74
2023/10/21 08:15:57;;;;;;;14.33;7.10;;;5.80;99.90;5.00;98785;;;;566118;249;24092;-80
2023/10/21 08:18:25;;;;;;;15.47;6.50;;;5.80;99.90;5.00;98780;;;;566652;249;24103;-78
2023/10/21 08:20:53;;;;;;;15.45;5.53;;;5.80;99.90;5.10;98788;;;;561763;249;35402;-81
2023/10/21 08:23:21;;;;;;;11.87;3.83;;;5.90;99.90;5.10;98783;;;;566238;249;24107;-82
2023/10/21 08:25:49;;;;;;;6.23;3.27;;;5.90;99.90;5.00;98771;;;;566173;249;24080;-82
2023/10/21 08:28:20;;;;;;;8.37;3.23;;;5.90;99.90;5.00;98771;;;;566302;249;24166;-85
2023/10/21 08:30:44;;;;;;;4.07;2.87;;;5.80;99.90;5.10;98787;;;;563782;249;24122;-85
2023/10/21 08:33:13;;;;;;;5.50;3.40;;;5.90;99.90;5.10;98783;;;;566163;249;24113;-87
2023/10/21 08:35:41;;;;;;;8.57;3.10;;;5.90;99.90;5.10;98795;;;;566110;249;24158;-87
2023/10/21 08:38:12;;;;;;;5.70;3.17;;;5.90;99.90;5.10;98791;;;;566773;249;24093;-85
2023/10/21 08:40:37;;;;;;;9.47;2.93;;;5.90;99.90;5.10;98762;;;;567904;246;24114;-82
2023/10/21 08:43:08;;;;;;;7.03;4.20;;;5.90;99.90;5.10;98752;;;;568244;248;24099;-82
2023/10/21 08:45:37;;;;;;;7.03;3.80;;;5.90;99.90;5.10;98747;;;;568974;248;24125;-82
2023/10/21 08:48:04;;;;;;;11.55;5.43;;;5.90;99.90;5.10;98771;;;;563906;248;35675;-83
2023/10/21 08:50:33;;;;;;;9.57;4.47;;;6.00;99.90;5.10;98798;;;;569156;248;24093;-84
2023/10/21 08:53:00;;;;;;;5.27;3.90;;;6.00;99.90;5.10;98791;;;;568356;248;25239;-86
2023/10/21 08:55:30;;;;;;;11.67;5.17;;;5.90;99.90;5.10;98786;;;;568531;248;24109;-84
2023/10/21 08:57:58;;;;;;;7.07;3.83;;;6.00;99.90;5.20;98805;;;;566566;248;24088;-83
2023/10/21 09:00:23;;;;;;;9.10;4.40;;;6.00;99.90;5.20;98823;;;;567948;249;24107;-84
2023/10/21 09:02:50;;;;;;;10.60;5.50;;;6.00;99.90;5.20;98828;;;;567947;248;24188;-78
2023/10/21 09:05:19;;;;;;;5.90;3.83;;;6.00;99.90;5.20;98829;;;;566600;249;24158;-83
2023/10/21 09:07:51;;;;;;;4.40;3.77;;;6.00;99.90;5.30;98836;;;;566600;249;24068;-82
2023/10/21 09:10:18;;;;;;;7.97;4.40;;;6.10;99.90;5.30;98819;;;;566776;249;24142;-80
2023/10/21 09:12:45;;;;;;;6.93;4.03;;;6.10;99.90;5.30;98818;;;;571396;249;24119;-84
2023/10/21 09:15:12;;;;;;;5.53;3.37;;;6.20;99.90;5.30;98823;;;;567924;249;24122;-85
2023/10/21 09:17:43;;;;;;;9.27;4.03;;;6.20;99.90;5.30;98827;;;;576331;246;24079;-76
2023/10/21 09:20:18;;;;;;;4.37;3.77;;;6.10;99.90;5.30;98826;;;;575723;248;24074;-76
2023/10/21 09:22:43;;;;;;;13.07;4.87;;;6.20;99.90;5.40;98819;;;;566072;249;24089;-76
2023/10/21 09:25:18;;;;;;;8.43;4.77;;;6.20;99.90;5.50;98829;;;;565750;249;24109;-76
2023/10/21 09:27:53;;;;;;;10.33;5.03;;;6.30;99.90;5.50;98819;;;;567674;249;24137;-76
2023/10/21 09:30:19;;;;;;;5.00;3.97;;;6.40;99.90;5.60;98822;;;;566038;249;24101;-79
2023/10/21 09:32:49;;;;;;;9.37;4.90;;;6.40;99.90;5.60;98818;;;;567748;249;24122;-81
2023/10/21 09:35:25;;;;;;;7.33;5.43;;;6.40;99.90;5.70;98811;;;;571265;249;24088;-81
2023/10/21 09:37:50;;;;;;;11.90;5.23;;;6.50;99.90;5.80;98802;;;;568033;249;24095;-77
2023/10/21 09:40:21;;;;;;;15.60;4.57;;;6.60;99.90;5.80;98814;;;;566275;249;24114;-75
2023/10/21 09:42:47;;;;;;;60.37;7.43;;;6.60;99.90;5.80;98828;;;;567881;248;24098;-80
2023/10/21 09:45:17;;;;;;;16.30;5.10;;;6.60;99.90;5.80;98829;;;;566710;249;24138;-76
2023/10/21 09:47:46;;;;;;;22.63;8.30;;;6.60;99.90;5.80;98832;;;;562711;249;35323;-75
2023/10/21 09:50:13;;;;;;;24.65;9.98;;;6.60;99.90;5.70;98835;;;;561005;249;35363;-77
2023/10/21 09:52:49;;;;;;;28.40;11.68;;;6.60;99.90;5.80;98837;;;;561878;248;35330;-76
2023/10/21 09:55:18;;;;;;;24.27;6.73;;;6.60;99.90;5.90;98846;;;;568690;248;24122;-77
2023/10/21 09:57:49;;;;;;;23.27;4.90;;;6.70;99.90;5.90;98852;;;;568251;248;24116;-76
2023/10/21 10:00:17;;;;;;;17.27;5.87;;;6.70;99.90;5.90;98863;;;;576329;248;24181;-78
2023/10/21 10:02:42;;;;;;;9.63;6.60;;;6.70;99.90;6.00;98852;;;;567869;248;24182;-75
2023/10/21 10:05:09;;;;;;;12.37;6.03;;;6.80;99.90;6.10;98855;;;;566658;248;24101;-75
2023/10/21 10:07:41;;;;;;;10.00;5.10;;;6.90;99.90;6.10;98853;;;;576251;246;24088;-81
2023/10/21 10:10:09;;;;;;;11.63;5.10;;;7.00;99.90;6.20;98868;;;;567580;248;24151;-78
2023/10/21 10:12:57;;;;;;;12.33;4.47;;;7.00;99.90;6.30;98867;;;;575794;246;24159;-79
2023/10/21 10:15:34;;;;;;;7.40;3.70;;;7.10;99.90;6.30;98871;;;;566468;249;24089;-76
2023/10/21 10:18:03;;;;;;;7.97;4.10;;;7.10;99.90;6.30;98870;;;;566690;249;24097;-74
2023/10/21 10:20:31;;;;;;;10.77;5.70;;;7.10;99.90;6.30;98882;;;;566848;249;25129;-78
2023/10/21 10:23:08;;;;;;;8.00;4.70;;;7.10;99.90;6.30;98885;;;;570967;248;24118;-82
2023/10/21 10:25:35;;;;;;;14.90;5.30;;;7.10;99.90;6.30;98881;;;;566050;249;24131;-76
2023/10/21 10:28:09;;;;;;;6.70;4.23;;;7.10;99.90;6.30;98879;;;;566565;249;24113;-77
2023/10/21 10:30:46;;;;;;;8.20;4.57;;;7.10;99.90;6.30;98876;;;;566260;249;24092;-77
2023/10/21 10:33:17;;;;;;;10.80;5.37;;;7.10;99.90;6.30;98884;;;;576111;247;24090;-77
2023/10/21 10:35:53;;;;;;;13.67;5.10;;;7.10;99.90;6.40;98885;;;;566663;249;24149;-78
2023/10/21 10:38:39;;;;;;;8.23;5.50;;;7.20;99.90;6.50;98889;;;;567206;249;24092;-81
2023/10/21 10:41:11;;;;;;;7.07;4.80;;;7.30;99.90;6.50;98903;;;;565081;249;24090;-80
2023/10/21 10:43:44;;;;;;;8.07;4.83;;;7.30;99.90;6.60;98898;;;;567245;249;24127;-77
2023/10/21 10:46:09;;;;;;;13.33;5.50;;;7.40;99.90;6.60;98907;;;;563286;249;25192;-78
2023/10/21 10:48:39;;;;;;;7.23;5.60;;;7.40;99.90;6.70;98906;;;;570544;249;24093;-76
2023/10/21 10:51:12;;;;;;;7.97;4.70;;;7.50;99.90;6.70;98913;;;;565667;249;24116;-76
2023/10/21 10:53:35;;;;;;;9.60;4.97;;;7.50;99.90;6.70;98905;;;;570622;249;24133;-78
2023/10/21 10:56:05;;;;;;;12.67;5.63;;;7.50;99.90;6.70;98908;;;;565581;249;24098;-77
2023/10/21 10:58:32;;;;;;;14.87;6.53;;;7.60;99.90;6.70;98903;;;;564986;249;24167;-75
2023/10/21 11:00:59;;;;;;;10.93;5.50;;;7.60;99.90;6.70;98901;;;;565942;249;24147;-75
2023/10/21 11:03:36;;;;;;;9.17;5.43;;;7.60;99.90;6.80;98896;;;;565744;249;24105;-77
2023/10/21 11:05:58;;;;;;;7.53;4.73;;;7.60;99.90;6.90;98893;;;;567317;248;24132;-76
2023/10/21 11:08:27;;;;;;;7.33;4.73;;;7.70;99.90;6.90;98893;;;;567961;248;24126;-76
2023/10/21 11:10:54;;;;;;;12.60;5.93;;;7.70;99.90;6.90;98885;;;;574282;247;24097;-78
2023/10/21 11:13:19;;;;;;;7.90;3.60;;;7.70;99.90;7.00;98885;;;;568395;248;24159;-75
2023/10/21 11:15:57;;;;;;;7.23;5.57;;;7.80;99.90;7.00;98882;;;;567453;248;24146;-76
2023/10/21 11:18:17;;;;;;;14.23;7.33;;;7.80;99.90;7.00;98886;;;;569459;248;24130;-76
2023/10/21 11:20:52;;;;;;;10.90;6.93;;;7.80;99.90;7.10;98890;;;;567177;248;24104;-75
2023/10/21 11:23:20;;;;;;;14.67;6.60;;;7.90;99.90;7.20;98886;;;;570739;249;24083;-76
2023/10/21 11:25:54;;;;;;;17.03;9.60;;;8.10;99.90;7.30;98891;;;;570987;246;35397;-76
2023/10/21 11:28:23;;;;;;;12.67;7.80;;;8.00;99.90;7.30;98897;;;;567952;249;24174;-80
2023/10/21 11:30:50;;;;;;;8.37;5.83;;;8.10;99.90;7.30;98892;;;;576159;249;24152;-80
2023/10/21 11:33:15;;;;;;;12.07;7.07;;;8.10;99.90;7.30;98891;;;;567276;249;24204;-78
2023/10/21 11:35:44;;;;;;;8.50;6.03;;;8.10;99.90;7.40;98886;;;;566239;249;24132;-81
2023/10/21 11:38:13;;;;;;;9.13;6.53;;;8.20;99.90;7.60;98900;;;;567266;249;24104;-77